Tor Futura — OZZE2 — position and weather

sailwx.info

Track history (hours):
 
Tides and Currents Weather Stations Pressure Air Temp Water Temp Dewpoint Dewpoint Depression Visibility Wind Speed Wind Dir Waves Ship Positions

Tor Futura

Last reported at 2016-Dec-09 08:33 UTC. Time now 2016-Dec-10 03:09 UTC.
Position N 38°39' E 008°41'.

Length 183.1 m; beam 25.2 m; draft 7.8 m.

Type: Ship. MMSI: 219927000.

Date/timePositionNaut miles runAvg speedWind from/ knotsBaromVisibWave heightAir tempDewpointWater temp
2016-Dec-09 08:33N 38°39' E 008°41'3 0.1
2016-Dec-07 18:19N 38°36' E 008°40'31614.3
2016-Dec-06 20:15N 43°10' E 005°11'12 4.3
2016-Dec-06 17:25N 43°19' E 005°22'0 0.0
2016-Dec-06 16:31N 43°19' E 005°22'0 0.0
2016-Dec-06 15:13N 43°19' E 005°22'0 0.0
2016-Dec-06 14:28N 43°19' E 005°22'0 0.0
2016-Dec-06 13:19N 43°19' E 005°22'0 0.0
2016-Dec-06 12:31N 43°19' E 005°22'0 0.0
2016-Dec-06 11:16N 43°19' E 005°22'0 0.0
2016-Dec-06 10:22N 43°19' E 005°22'0 0.0
2016-Dec-06 09:25N 43°19' E 005°22'0 0.0
2016-Dec-06 08:22N 43°19' E 005°22'0 0.0
2016-Dec-06 07:25N 43°19' E 005°22'0 0.0
2016-Dec-06 06:10N 43°19' E 005°22'0 0.0
2016-Dec-06 05:25N 43°19' E 005°22'0 0.0
2016-Dec-06 04:28N 43°19' E 005°22'0 0.0
2016-Dec-06 03:25N 43°19' E 005°22'0 0.0
2016-Dec-06 02:31N 43°19' E 005°22'0 0.0
2016-Dec-06 01:28N 43°19' E 005°22'0 0.0
2016-Dec-06 00:31N 43°19' E 005°22'0 0.0
2016-Dec-05 23:19N 43°19' E 005°22'0 0.0
2016-Dec-05 20:19N 43°19' E 005°22'0 0.0
2016-Dec-05 19:25N 43°19' E 005°22'0 0.0
2016-Dec-05 18:25N 43°19' E 005°22'0 0.0
2016-Dec-05 17:25N 43°19' E 005°22'0 0.0
2016-Dec-05 16:25N 43°19' E 005°22'0 0.0
2016-Dec-05 15:28N 43°19' E 005°22'0 0.0
2016-Dec-05 14:13N 43°19' E 005°22'0 0.0
2016-Dec-05 13:31N 43°19' E 005°22'0 0.0
2016-Dec-05 12:28N 43°19' E 005°22'0 0.0
2016-Dec-05 11:28N 43°19' E 005°22'0 0.0
2016-Dec-05 10:28N 43°19' E 005°22'0 0.0
2016-Dec-05 09:31N 43°19' E 005°22'0 0.0
2016-Dec-05 08:31N 43°19' E 005°22'0 0.1
2016-Dec-05 07:04N 43°19' E 005°21'4 7.1
2016-Dec-05 06:33N 43°20' E 005°17'31715.0
2016-Dec-04 09:26N 38°41' E 008°38'  
2016-Dec-01 19:30N 43°10' E 005°11'1111.4
2016-Dec-01 18:33N 43°20' E 005°16'4 3.3
2016-Dec-01 17:13N 43°19' E 005°22'0 0.0
2016-Dec-01 15:28N 43°19' E 005°22'0 0.0
2016-Dec-01 14:16N 43°19' E 005°22'0 0.0
2016-Dec-01 13:31N 43°19' E 005°22'0 0.0
2016-Dec-01 12:31N 43°19' E 005°22'0 0.0
2016-Dec-01 10:22N 43°19' E 005°22'0 0.0
2016-Dec-01 09:22N 43°19' E 005°22'0 0.0
2016-Dec-01 07:25N 43°19' E 005°22'4 5.0
2016-Dec-01 06:32N 43°19' E 005°16'32013.9
2016-Nov-30 07:33N 38°39' E 008°39'  
Track history (hours):
 
Tides and Currents Weather Stations Pressure Air Temp Water Temp Dewpoint Dewpoint Depression Visibility Wind Speed Wind Dir Waves Ship Positions

Tor Futura

Last reported at 2016-Dec-09 08:33 UTC. Time now 2016-Dec-10 03:09 UTC.
Position N 38°39' E 008°41'.

Length 183.1 m; beam 25.2 m; draft 7.8 m.

Type: Ship. MMSI: 219927000.

Date/timePositionNaut miles runAvg speedWind from/ knotsBaromVisibWave heightAir tempDewpointWater temp
2016-Dec-09 08:33N 38°39' E 008°41'3 0.1
2016-Dec-07 18:19N 38°36' E 008°40'31614.3
2016-Dec-06 20:15N 43°10' E 005°11'12 4.3
2016-Dec-06 17:25N 43°19' E 005°22'0 0.0
2016-Dec-06 16:31N 43°19' E 005°22'0 0.0
2016-Dec-06 15:13N 43°19' E 005°22'0 0.0
2016-Dec-06 14:28N 43°19' E 005°22'0 0.0
2016-Dec-06 13:19N 43°19' E 005°22'0 0.0
2016-Dec-06 12:31N 43°19' E 005°22'0 0.0
2016-Dec-06 11:16N 43°19' E 005°22'0 0.0
2016-Dec-06 10:22N 43°19' E 005°22'0 0.0
2016-Dec-06 09:25N 43°19' E 005°22'0 0.0
2016-Dec-06 08:22N 43°19' E 005°22'0 0.0
2016-Dec-06 07:25N 43°19' E 005°22'0 0.0
2016-Dec-06 06:10N 43°19' E 005°22'0 0.0
2016-Dec-06 05:25N 43°19' E 005°22'0 0.0
2016-Dec-06 04:28N 43°19' E 005°22'0 0.0
2016-Dec-06 03:25N 43°19' E 005°22'0 0.0
2016-Dec-06 02:31N 43°19' E 005°22'0 0.0
2016-Dec-06 01:28N 43°19' E 005°22'0 0.0
2016-Dec-06 00:31N 43°19' E 005°22'0 0.0
2016-Dec-05 23:19N 43°19' E 005°22'0 0.0
2016-Dec-05 20:19N 43°19' E 005°22'0 0.0
2016-Dec-05 19:25N 43°19' E 005°22'0 0.0
2016-Dec-05 18:25N 43°19' E 005°22'0 0.0
2016-Dec-05 17:25N 43°19' E 005°22'0 0.0
2016-Dec-05 16:25N 43°19' E 005°22'0 0.0
2016-Dec-05 15:28N 43°19' E 005°22'0 0.0
2016-Dec-05 14:13N 43°19' E 005°22'0 0.0
2016-Dec-05 13:31N 43°19' E 005°22'0 0.0
2016-Dec-05 12:28N 43°19' E 005°22'0 0.0
2016-Dec-05 11:28N 43°19' E 005°22'0 0.0
2016-Dec-05 10:28N 43°19' E 005°22'0 0.0
2016-Dec-05 09:31N 43°19' E 005°22'0 0.0
2016-Dec-05 08:31N 43°19' E 005°22'0 0.1
2016-Dec-05 07:04N 43°19' E 005°21'4 7.1
2016-Dec-05 06:33N 43°20' E 005°17'31715.0
2016-Dec-04 09:26N 38°41' E 008°38'  
2016-Dec-01 19:30N 43°10' E 005°11'1111.4
2016-Dec-01 18:33N 43°20' E 005°16'4 3.3
2016-Dec-01 17:13N 43°19' E 005°22'0 0.0
2016-Dec-01 15:28N 43°19' E 005°22'0 0.0
2016-Dec-01 14:16N 43°19' E 005°22'0 0.0
2016-Dec-01 13:31N 43°19' E 005°22'0 0.0
2016-Dec-01 12:31N 43°19' E 005°22'0 0.0
2016-Dec-01 10:22N 43°19' E 005°22'0 0.0
2016-Dec-01 09:22N 43°19' E 005°22'0 0.0
2016-Dec-01 07:25N 43°19' E 005°22'4 5.0
2016-Dec-01 06:32N 43°19' E 005°16'32013.9
2016-Nov-30 07:33N 38°39' E 008°39'  

Dump ship's entire track history